createdAt,value
2019-02-23T00:01:13.441Z,93.82
2019-02-23T00:03:44.389Z,93.78
2019-02-23T00:06:15.450Z,93.89
2019-02-23T00:08:46.354Z,93.69
2019-02-23T00:11:17.405Z,93.92
2019-02-23T00:13:48.379Z,94.32
2019-02-23T00:16:19.375Z,95.28
2019-02-23T00:18:50.354Z,93.95
2019-02-23T00:21:21.317Z,93.00
2019-02-23T00:23:52.200Z,93.25
2019-02-23T00:26:23.157Z,93.30
2019-02-23T00:28:54.055Z,93.81
2019-02-23T00:31:24.947Z,93.86
2019-02-23T00:33:55.858Z,94.28
2019-02-23T00:36:26.879Z,94.89
2019-02-23T00:38:57.818Z,96.32
2019-02-23T00:41:28.696Z,97.33
2019-02-23T00:43:59.590Z,96.86
2019-02-23T00:46:30.628Z,95.85
2019-02-23T00:49:01.709Z,95.13
2019-02-23T00:51:32.676Z,94.69
2019-02-23T00:54:03.730Z,94.09
2019-02-23T00:56:34.727Z,92.67
2019-02-23T00:59:05.591Z,92.22
2019-02-23T01:01:36.521Z,91.72
2019-02-23T01:04:07.688Z,91.69
2019-02-23T01:06:38.801Z,92.12
2019-02-23T01:09:09.807Z,92.86
2019-02-23T01:11:40.721Z,91.48
2019-02-23T01:14:11.636Z,91.22
2019-02-23T01:16:42.542Z,90.77
2019-02-23T01:19:13.634Z,89.74
2019-02-23T01:21:44.601Z,88.49
2019-02-23T01:24:15.655Z,88.34
2019-02-23T01:26:46.667Z,87.99
2019-02-23T01:29:17.629Z,87.00
2019-02-23T01:31:48.643Z,86.52
2019-02-23T01:34:19.524Z,86.55
2019-02-23T01:36:50.581Z,86.43
2019-02-23T01:39:21.652Z,86.28
2019-02-23T01:41:52.656Z,85.82
2019-02-23T01:44:23.625Z,85.63
2019-02-23T01:46:54.612Z,85.34
2019-02-23T01:49:25.593Z,84.39
2019-02-23T01:51:56.538Z,84.54
2019-02-23T01:54:27.888Z,84.54
2019-02-23T01:56:58.867Z,84.27
2019-02-23T01:59:29.983Z,84.61
2019-02-23T02:02:00.936Z,85.07
2019-02-23T02:04:31.924Z,85.41
2019-02-23T02:07:02.950Z,85.91
2019-02-23T02:09:34.033Z,86.65
2019-02-23T02:12:06.713Z,86.85
2019-02-23T02:14:37.939Z,86.81
2019-02-23T02:17:08.988Z,86.62
2019-02-23T02:19:39.974Z,86.36
2019-02-23T02:22:10.993Z,86.52
2019-02-23T02:24:41.936Z,85.62
2019-02-23T02:27:12.995Z,85.10
2019-02-23T02:29:43.955Z,84.86
2019-02-23T02:32:14.905Z,84.62
2019-02-23T02:34:45.955Z,84.60
2019-02-23T02:37:16.850Z,84.40
2019-02-23T02:39:47.830Z,84.89
2019-02-23T02:42:18.885Z,85.04
2019-02-23T02:44:49.799Z,85.27
2019-02-23T02:47:20.812Z,85.51
2019-02-23T02:49:51.814Z,85.94
2019-02-23T02:52:22.848Z,85.95
2019-02-23T02:54:53.817Z,86.50
2019-02-23T02:57:24.885Z,86.71
2019-02-23T02:59:55.809Z,87.22
2019-02-23T03:02:26.849Z,88.13
2019-02-23T03:04:57.795Z,88.73
2019-02-23T03:07:28.764Z,88.67
2019-02-23T03:09:59.733Z,87.56
2019-02-23T03:12:31.442Z,86.89
2019-02-23T03:15:02.392Z,86.36
2019-02-23T03:17:33.395Z,86.71
2019-02-23T03:20:05.896Z,86.56
2019-02-23T03:22:36.906Z,86.77
2019-02-23T03:25:08.322Z,87.05
2019-02-23T03:27:39.316Z,87.34
2019-02-23T03:30:11.605Z,87.88
2019-02-23T03:32:42.742Z,88.21
2019-02-23T03:35:13.772Z,88.04
2019-02-23T03:37:44.656Z,88.42
2019-02-23T03:40:15.700Z,88.34
2019-02-23T03:42:46.706Z,88.42
2019-02-23T03:45:17.803Z,88.61
2019-02-23T03:47:48.869Z,89.02
2019-02-23T03:50:19.863Z,89.58
2019-02-23T03:52:50.835Z,90.63
2019-02-23T03:55:21.758Z,90.90
2019-02-23T03:57:52.650Z,91.17
2019-02-23T04:00:23.664Z,91.89
2019-02-23T04:02:54.604Z,92.04
2019-02-23T04:05:25.519Z,91.79
2019-02-23T04:07:56.463Z,91.53
2019-02-23T04:10:27.455Z,91.25
2019-02-23T04:12:58.450Z,90.96
2019-02-23T04:15:29.329Z,91.21
2019-02-23T04:18:00.270Z,91.52
2019-02-23T04:20:31.289Z,91.25
2019-02-23T04:23:02.301Z,90.99
2019-02-23T04:25:33.335Z,90.81
2019-02-23T04:28:04.325Z,90.31
2019-02-23T04:30:35.298Z,90.93
2019-02-23T04:33:06.236Z,90.71
2019-02-23T04:35:37.199Z,91.01
2019-02-23T04:38:08.084Z,91.35
2019-02-23T04:40:38.998Z,92.20
2019-02-23T04:43:09.957Z,92.75
2019-02-23T04:45:41.032Z,92.97
2019-02-23T04:48:12.091Z,92.80
2019-02-23T04:50:42.988Z,92.64
2019-02-23T04:53:13.986Z,92.46
2019-02-23T04:55:44.943Z,92.86
2019-02-23T04:58:15.875Z,92.77
2019-02-23T05:00:46.793Z,92.82
2019-02-23T05:03:17.900Z,92.71
2019-02-23T05:05:48.798Z,93.18
2019-02-23T05:08:19.798Z,93.34
2019-02-23T05:10:52.495Z,93.06
2019-02-23T05:13:23.379Z,93.14
2019-02-23T05:15:54.338Z,94.07
2019-02-23T05:18:25.240Z,95.05
2019-02-23T05:20:56.337Z,95.14
2019-02-23T05:23:27.280Z,94.68
2019-02-23T05:25:58.197Z,94.21
2019-02-23T05:28:29.073Z,93.95
2019-02-23T05:31:00.253Z,93.80
2019-02-23T05:33:31.219Z,93.80
2019-02-23T05:36:02.243Z,93.85
2019-02-23T05:38:33.133Z,94.04
2019-02-23T05:41:04.119Z,93.97
2019-02-23T05:43:34.999Z,94.21
2019-02-23T05:46:06.053Z,94.19
2019-02-23T05:48:36.959Z,94.23
2019-02-23T05:51:07.978Z,94.53
2019-02-23T05:53:38.953Z,94.74
2019-02-23T05:56:13.909Z,95.06
2019-02-23T05:58:42.711Z,95.15
2019-02-23T06:01:13.694Z,95.23
2019-02-23T06:03:44.665Z,94.98
2019-02-23T06:06:15.589Z,95.03
2019-02-23T06:08:46.547Z,95.14
2019-02-23T06:11:17.529Z,95.55
2019-02-23T06:13:48.476Z,95.85
2019-02-23T06:16:19.460Z,96.72
2019-02-23T06:18:50.570Z,96.74
2019-02-23T06:21:21.680Z,96.84
2019-02-23T06:23:52.583Z,96.54
2019-02-23T06:26:23.547Z,96.28
2019-02-23T06:28:54.532Z,96.06
2019-02-23T06:31:25.569Z,95.68
2019-02-23T06:33:56.629Z,94.80
2019-02-23T06:36:27.610Z,94.40
2019-02-23T06:38:58.588Z,94.13
2019-02-23T06:41:29.676Z,94.20
2019-02-23T06:44:00.641Z,93.89
2019-02-23T06:46:31.626Z,93.43
2019-02-23T06:49:02.606Z,92.53
2019-02-23T06:51:33.602Z,89.94
2019-02-23T06:54:04.657Z,87.22
2019-02-23T06:56:35.555Z,85.95
2019-02-23T06:59:06.530Z,84.81
2019-02-23T07:01:37.498Z,83.84
2019-02-23T07:04:08.382Z,82.96
2019-02-23T07:06:40.457Z,82.09
2019-02-23T07:09:11.638Z,80.77
2019-02-23T07:11:42.704Z,80.55
2019-02-23T07:14:13.675Z,80.92
2019-02-23T07:16:44.578Z,79.18
2019-02-23T07:19:15.579Z,78.06
2019-02-23T07:21:46.618Z,77.08
2019-02-23T07:24:17.672Z,76.02
2019-02-23T07:26:48.822Z,74.75
2019-02-23T07:29:19.963Z,74.14
2019-02-23T07:31:50.983Z,72.94
2019-02-23T07:34:22.000Z,72.50
2019-02-23T07:36:53.245Z,72.06
2019-02-23T07:39:24.118Z,71.06
2019-02-23T07:41:55.074Z,71.02
2019-02-23T07:44:26.090Z,71.19
2019-02-23T07:46:57.334Z,70.14
2019-02-23T07:49:28.289Z,68.36
2019-02-23T07:51:59.270Z,69.65
2019-02-23T07:54:30.198Z,68.35
2019-02-23T07:57:01.156Z,67.23
2019-02-23T07:59:32.272Z,68.14
2019-02-23T08:02:03.378Z,67.25
2019-02-23T08:04:34.352Z,66.25
2019-02-23T08:07:06.389Z,63.79
2019-02-23T08:09:37.284Z,64.70
2019-02-23T08:12:08.367Z,64.75
2019-02-23T08:14:39.408Z,62.04
2019-02-23T08:17:10.430Z,62.84
2019-02-23T08:19:41.382Z,63.65
2019-02-23T08:22:12.417Z,62.63
2019-02-23T08:24:43.404Z,61.56
2019-02-23T08:27:14.375Z,59.83
2019-02-23T08:29:45.350Z,58.98
2019-02-23T08:32:16.373Z,57.75
2019-02-23T08:34:47.363Z,57.84
2019-02-23T08:37:18.355Z,57.63
2019-02-23T08:39:49.561Z,59.11
2019-02-23T08:42:20.468Z,59.19
2019-02-23T08:44:51.452Z,59.89
2019-02-23T08:47:22.466Z,60.58
2019-02-23T08:49:53.571Z,59.35
2019-02-23T08:52:24.580Z,59.02
2019-02-23T08:54:55.564Z,57.77
2019-02-23T08:57:26.484Z,56.51
2019-02-23T08:59:57.406Z,55.75
2019-02-23T09:02:28.338Z,54.24
2019-02-23T09:04:59.289Z,54.76
2019-02-23T09:07:30.169Z,55.53
2019-02-23T09:10:01.100Z,54.54
2019-02-23T09:12:32.131Z,53.20
2019-02-23T09:15:03.045Z,52.33
2019-02-23T09:17:34.019Z,52.93
2019-02-23T09:20:06.552Z,51.46
2019-02-23T09:22:37.584Z,49.33
2019-02-23T09:25:09.995Z,49.86
2019-02-23T09:27:41.047Z,50.42
2019-02-23T09:30:15.621Z,47.40
2019-02-23T09:32:46.509Z,46.48
2019-02-23T09:35:17.608Z,45.96
2019-02-23T09:37:48.939Z,45.83
2019-02-23T09:40:20.657Z,44.91
2019-02-23T09:42:51.720Z,43.36
2019-02-23T09:45:22.833Z,42.51
2019-02-23T09:48:06.771Z,42.57
2019-02-23T09:50:37.798Z,41.90
2019-02-23T09:53:11.433Z,42.22
2019-02-23T09:55:41.692Z,42.37
2019-02-23T09:58:12.781Z,40.97
2019-02-23T10:00:43.769Z,39.34
2019-02-23T10:03:14.724Z,39.32
2019-02-23T10:05:45.596Z,39.04
2019-02-23T10:08:17.007Z,37.79
2019-02-23T10:10:48.010Z,37.67
2019-02-23T10:13:18.977Z,37.43
2019-02-23T10:15:49.983Z,36.11
2019-02-23T10:18:20.956Z,36.75
2019-02-23T10:20:53.487Z,36.51
2019-02-23T10:23:24.531Z,35.38
2019-02-23T10:25:55.409Z,35.26
2019-02-23T10:28:26.370Z,35.97
2019-02-23T10:30:57.407Z,37.47
2019-02-23T10:33:28.439Z,37.44
2019-02-23T10:35:59.429Z,37.24
2019-02-23T10:38:30.383Z,37.71
2019-02-23T10:41:01.288Z,37.41
2019-02-23T10:43:32.241Z,37.93
2019-02-23T10:46:03.240Z,34.88
2019-02-23T10:48:34.531Z,33.05
2019-02-23T10:51:05.632Z,32.79
2019-02-23T10:53:36.526Z,31.45
2019-02-23T10:56:07.582Z,30.61
2019-02-23T10:58:38.490Z,32.98
2019-02-23T11:01:09.525Z,31.29
2019-02-23T11:03:40.565Z,30.87
2019-02-23T11:06:11.778Z,30.95
2019-02-23T11:08:42.846Z,29.11
2019-02-23T11:11:13.877Z,28.36
2019-02-23T11:13:44.922Z,27.67
2019-02-23T11:16:15.972Z,26.37
2019-02-23T11:18:47.027Z,26.77
2019-02-23T11:21:18.236Z,26.87
2019-02-23T11:23:49.398Z,26.82
2019-02-23T11:26:20.349Z,27.11
2019-02-23T11:28:51.443Z,27.75
2019-02-23T11:31:22.414Z,26.73
2019-02-23T11:33:53.306Z,25.13
2019-02-23T11:36:24.210Z,25.18
2019-02-23T11:38:55.081Z,25.43
2019-02-23T11:41:25.989Z,25.33
2019-02-23T11:43:56.866Z,23.71
2019-02-23T11:46:27.896Z,23.51
2019-02-23T11:48:58.789Z,22.91
2019-02-23T11:51:29.762Z,24.23
2019-02-23T11:54:00.770Z,23.64
2019-02-23T11:56:31.682Z,22.81
2019-02-23T11:59:02.614Z,22.40
2019-02-23T12:01:33.484Z,22.91
2019-02-23T12:04:04.468Z,22.93
2019-02-23T12:06:35.438Z,22.25
2019-02-23T12:09:09.595Z,21.61
2019-02-23T12:11:40.712Z,23.22
2019-02-23T12:14:11.613Z,23.80
2019-02-23T12:16:42.614Z,22.55
2019-02-23T12:19:13.562Z,22.51
2019-02-23T12:21:44.638Z,22.46
2019-02-23T12:24:15.490Z,22.16
2019-02-23T12:26:46.476Z,22.61
2019-02-23T12:29:17.393Z,22.49
2019-02-23T12:31:48.318Z,20.29
2019-02-23T12:34:19.239Z,20.83
2019-02-23T12:36:50.259Z,22.44
2019-02-23T12:39:21.162Z,20.76
2019-02-23T12:41:52.361Z,20.62
2019-02-23T12:44:23.403Z,21.23
2019-02-23T12:46:54.277Z,22.45
2019-02-23T12:49:25.206Z,22.72
2019-02-23T12:51:56.160Z,22.52
2019-02-23T12:54:27.038Z,22.07
2019-02-23T12:56:57.986Z,21.73
2019-02-23T12:59:28.937Z,22.82
2019-02-23T13:01:59.975Z,22.60
2019-02-23T13:04:31.079Z,22.12
2019-02-23T13:07:02.042Z,20.97
2019-02-23T13:09:33.589Z,21.23
2019-02-23T13:12:19.236Z,21.86
2019-02-23T13:14:59.084Z,21.98
2019-02-23T13:18:01.251Z,23.24
2019-02-23T13:20:53.128Z,23.33
2019-02-23T13:23:33.027Z,21.89
2019-02-23T13:26:41.316Z,22.60
2019-02-23T13:29:20.909Z,22.76
2019-02-23T13:32:27.648Z,23.19
2019-02-23T13:35:18.150Z,23.79
2019-02-23T13:37:57.889Z,22.77
2019-02-23T13:40:40.509Z,23.51
2019-02-23T13:43:33.801Z,23.43
2019-02-23T13:46:39.262Z,22.57
2019-02-23T13:49:15.923Z,22.80
2019-02-23T13:51:58.628Z,22.26
2019-02-23T13:54:44.313Z,23.09
2019-02-23T13:57:26.830Z,23.86
2019-02-23T14:00:18.626Z,23.38
2019-02-23T14:03:10.700Z,23.62
2019-02-23T14:05:44.619Z,24.48
2019-02-23T14:08:30.478Z,24.00
2019-02-23T14:11:20.749Z,23.56
2019-02-23T14:14:00.308Z,24.16
2019-02-23T14:16:36.788Z,23.10
2019-02-23T14:19:22.239Z,23.10
2019-02-23T14:21:56.167Z,22.73
2019-02-23T14:24:49.526Z,23.36
2019-02-23T14:27:41.041Z,24.05
2019-02-23T14:30:23.623Z,23.77
2019-02-23T14:33:18.032Z,22.74
2019-02-23T14:35:57.528Z,23.04
2019-02-23T14:38:37.581Z,23.54
2019-02-23T14:41:14.096Z,22.83
2019-02-23T14:43:56.677Z,22.53
2019-02-23T14:46:45.370Z,23.28
2019-02-23T14:49:35.411Z,24.08
2019-02-23T14:52:30.110Z,24.30
2019-02-23T14:55:27.671Z,23.11
2019-02-23T14:58:01.672Z,23.64
2019-02-23T15:00:41.555Z,23.01
2019-02-23T15:03:44.072Z,22.14
2019-02-23T15:06:46.381Z,21.39
2019-02-23T15:09:41.312Z,21.60
2019-02-23T15:12:18.057Z,22.07
2019-02-23T15:15:06.655Z,22.74
2019-02-23T15:18:02.675Z,22.35
2019-02-23T15:20:57.279Z,22.08
2019-02-23T15:23:36.749Z,21.68
2019-02-23T15:26:13.342Z,21.98
2019-02-23T15:28:53.083Z,21.57
2019-02-23T15:31:30.135Z,21.80
2019-02-23T15:34:24.628Z,22.42
2019-02-23T15:37:00.908Z,22.53
2019-02-23T15:39:43.026Z,22.71
2019-02-23T15:42:19.903Z,23.05
2019-02-23T15:45:16.430Z,23.45
2019-02-23T15:47:53.150Z,23.57
2019-02-23T15:50:24.040Z,23.97
2019-02-23T15:52:55.120Z,23.20
2019-02-23T15:55:29.473Z,23.16
2019-02-23T15:57:58.704Z,23.57
2019-02-23T16:00:29.755Z,23.57
2019-02-23T16:03:00.608Z,23.71
2019-02-23T16:05:31.563Z,24.06
2019-02-23T16:08:02.464Z,24.13
2019-02-23T16:10:33.448Z,24.05
2019-02-23T16:13:04.389Z,24.31
2019-02-23T16:15:35.397Z,24.40
2019-02-23T16:18:06.453Z,25.19
2019-02-23T16:20:37.410Z,24.92
2019-02-23T16:23:08.376Z,25.12
2019-02-23T16:25:39.338Z,25.28
2019-02-23T16:28:10.338Z,25.40
2019-02-23T16:30:41.292Z,25.53
2019-02-23T16:33:12.235Z,26.14
2019-02-23T16:35:43.204Z,26.42
2019-02-23T16:38:14.211Z,27.01
2019-02-23T16:40:45.138Z,26.65
2019-02-23T16:43:20.930Z,27.61
2019-02-23T16:45:51.846Z,27.49
2019-02-23T16:48:22.934Z,27.73
2019-02-23T16:50:53.917Z,27.95
2019-02-23T16:53:24.866Z,28.29
2019-02-23T16:55:56.810Z,28.88
2019-02-23T16:58:27.757Z,28.99
2019-02-23T17:00:58.701Z,28.83
2019-02-23T17:03:29.658Z,28.96
2019-02-23T17:06:00.574Z,29.18
2019-02-23T17:08:33.430Z,29.68
2019-02-23T17:11:04.318Z,29.77
2019-02-23T17:13:35.300Z,29.82
2019-02-23T17:16:06.145Z,30.58
2019-02-23T17:18:37.096Z,30.71
2019-02-23T17:21:08.111Z,31.17
2019-02-23T17:23:39.006Z,31.39
2019-02-23T17:26:10.029Z,30.90
2019-02-23T17:28:41.029Z,31.10
2019-02-23T17:31:12.046Z,31.54
2019-02-23T17:33:42.990Z,33.46
2019-02-23T17:36:13.924Z,32.97
2019-02-23T17:38:45.002Z,32.81
2019-02-23T17:41:15.903Z,33.33
2019-02-23T17:43:46.936Z,33.78
2019-02-23T17:46:17.792Z,34.74
2019-02-23T17:48:49.050Z,33.96
2019-02-23T17:51:20.008Z,33.78
2019-02-23T17:53:50.978Z,33.62
2019-02-23T17:56:21.943Z,33.99
2019-02-23T17:58:52.986Z,35.53
2019-02-23T18:01:25.465Z,34.87
2019-02-23T18:03:56.586Z,34.96
2019-02-23T18:06:27.630Z,35.27
2019-02-23T18:08:58.665Z,35.37
2019-02-23T18:11:29.555Z,35.91
2019-02-23T18:14:00.512Z,35.59
2019-02-23T18:16:31.501Z,35.82
2019-02-23T18:19:02.495Z,36.36
2019-02-23T18:21:33.529Z,36.57
2019-02-23T18:24:04.561Z,36.99
2019-02-23T18:26:35.605Z,37.33
2019-02-23T18:29:07.785Z,38.36
2019-02-23T18:31:38.850Z,39.26
2019-02-23T18:34:09.884Z,40.45
2019-02-23T18:36:40.789Z,39.63
2019-02-23T18:39:11.771Z,40.48
2019-02-23T18:41:42.754Z,39.69
2019-02-23T18:44:13.705Z,39.44
2019-02-23T18:46:44.671Z,39.09
2019-02-23T18:49:15.571Z,38.93
2019-02-23T18:51:46.695Z,39.15
2019-02-23T18:54:17.663Z,39.48
2019-02-23T18:56:48.682Z,40.56
2019-02-23T18:59:19.567Z,41.18
2019-02-23T19:01:50.533Z,41.52
2019-02-23T19:04:21.515Z,42.32
2019-02-23T19:06:52.410Z,42.52
2019-02-23T19:09:23.368Z,42.71
2019-02-23T19:11:54.279Z,43.13
2019-02-23T19:14:25.199Z,43.69
2019-02-23T19:16:56.138Z,43.90
2019-02-23T19:19:27.163Z,44.83
2019-02-23T19:21:58.117Z,45.19
2019-02-23T19:24:29.164Z,45.30
2019-02-23T19:27:00.096Z,45.34
2019-02-23T19:29:31.092Z,45.76
2019-02-23T19:32:02.036Z,47.38
2019-02-23T19:34:33.010Z,48.04
2019-02-23T19:37:03.967Z,47.34
2019-02-23T19:39:34.903Z,47.00
2019-02-23T19:42:05.906Z,46.74
2019-02-23T19:44:36.903Z,46.90
2019-02-23T19:47:09.104Z,47.09
2019-02-23T19:49:40.069Z,47.82
2019-02-23T19:52:10.965Z,47.46
2019-02-23T19:54:41.911Z,47.88
2019-02-23T19:57:13.143Z,49.11
2019-02-23T19:59:44.090Z,48.93
2019-02-23T20:02:15.065Z,48.52
2019-02-23T20:04:46.104Z,48.32
2019-02-23T20:07:17.097Z,48.14
2019-02-23T20:09:48.071Z,48.91
2019-02-23T20:12:19.020Z,48.68
2019-02-23T20:14:50.130Z,49.56
2019-02-23T20:17:21.120Z,50.78
2019-02-23T20:19:52.032Z,50.75
2019-02-23T20:22:23.015Z,51.84
2019-02-23T20:24:53.918Z,52.35
2019-02-23T20:27:24.931Z,52.60
2019-02-23T20:29:55.886Z,53.05
2019-02-23T20:32:26.742Z,53.33
2019-02-23T20:34:57.688Z,53.25
2019-02-23T20:37:28.605Z,53.43
2019-02-23T20:39:59.514Z,53.15
2019-02-23T20:42:30.385Z,53.15
2019-02-23T20:45:01.406Z,53.25
2019-02-23T20:47:32.520Z,53.39
2019-02-23T20:50:04.508Z,53.30
2019-02-23T20:52:35.485Z,54.35
2019-02-23T20:55:08.357Z,54.22
2019-02-23T20:57:39.377Z,54.26
2019-02-23T21:00:11.551Z,53.50
2019-02-23T21:02:42.455Z,53.23
2019-02-23T21:05:14.364Z,54.11
2019-02-23T21:07:47.714Z,54.24
2019-02-23T21:10:18.772Z,56.43
2019-02-23T21:12:49.664Z,56.45
2019-02-23T21:15:20.624Z,55.80
2019-02-23T21:17:51.571Z,55.30
2019-02-23T21:20:22.494Z,55.51
2019-02-23T21:22:53.549Z,56.69
2019-02-23T21:25:24.527Z,57.04
2019-02-23T21:27:55.489Z,56.44
2019-02-23T21:30:26.477Z,56.29
2019-02-23T21:32:57.541Z,56.66
2019-02-23T21:35:28.601Z,56.35
2019-02-23T21:37:59.488Z,56.98
2019-02-23T21:40:30.452Z,58.95
2019-02-23T21:43:01.417Z,58.46
2019-02-23T21:45:32.281Z,58.27
2019-02-23T21:48:03.225Z,58.01
2019-02-23T21:50:34.208Z,58.26
2019-02-23T21:53:05.270Z,58.48
2019-02-23T21:55:36.313Z,58.42
2019-02-23T21:58:07.282Z,59.06
2019-02-23T22:00:38.178Z,58.92
2019-02-23T22:03:09.202Z,59.82
2019-02-23T22:05:40.066Z,59.83
2019-02-23T22:08:10.964Z,60.31
2019-02-23T22:10:41.952Z,61.69
2019-02-23T22:13:12.940Z,61.30
2019-02-23T22:15:43.861Z,60.97
2019-02-23T22:18:14.877Z,61.42
2019-02-23T22:20:45.907Z,61.63
2019-02-23T22:23:16.957Z,61.67
2019-02-23T22:25:47.962Z,61.85
2019-02-23T22:28:18.930Z,62.27
2019-02-23T22:30:49.838Z,62.69
2019-02-23T22:33:20.732Z,62.29
2019-02-23T22:35:51.716Z,61.82
2019-02-23T22:38:22.730Z,61.94
2019-02-23T22:40:56.130Z,61.58
2019-02-23T22:43:27.015Z,62.27
2019-02-23T22:45:58.029Z,61.83
2019-02-23T22:48:29.038Z,61.83
2019-02-23T22:51:00.111Z,61.96
2019-02-23T22:53:31.124Z,62.27
2019-02-23T22:56:02.042Z,61.87
2019-02-23T22:58:32.959Z,61.96
2019-02-23T23:01:04.999Z,62.21
2019-02-23T23:03:35.971Z,63.14
2019-02-23T23:06:07.205Z,63.32
2019-02-23T23:08:39.937Z,63.41
2019-02-23T23:11:10.954Z,63.21
2019-02-23T23:13:42.041Z,63.87
2019-02-23T23:16:13.009Z,64.07
2019-02-23T23:18:49.718Z,64.23
2019-02-23T23:21:20.680Z,64.98
2019-02-23T23:23:51.639Z,65.97
2019-02-23T23:26:22.602Z,65.49
2019-02-23T23:28:59.392Z,66.57
2019-02-23T23:31:30.397Z,65.81
2019-02-23T23:34:01.575Z,65.39
2019-02-23T23:36:32.743Z,65.05
2019-02-23T23:39:05.485Z,65.52
2019-02-23T23:41:36.399Z,65.91
2019-02-23T23:44:07.408Z,66.04
2019-02-23T23:46:38.327Z,65.79
2019-02-23T23:49:09.221Z,65.70
2019-02-23T23:51:40.118Z,65.81
2019-02-23T23:54:11.075Z,66.45
2019-02-23T23:56:42.047Z,66.59
2019-02-23T23:59:13.094Z,66.85
